Time;durP1;ratioP1;P1;durP2;ratioP2;P2;SDS_P1;SDS_P2;PMS_P1;PMS_P2;Temp;Humidity;BMP_temperature;BMP_pressure;BME280_temperature;BME280_humidity;BME280_pressure;Samples;Min_cycle;Max_cycle;Signal;HPM_P1;HPM_P2
2022/08/08 00:00:10;;;;;;;1.67;0.95;;;17.60;68.30;;;;;;4992080;28;20057;-88
2022/08/08 00:03:03;;;;;;;0.80;0.80;;;17.60;68.10;;;;;;5011974;28;20041;-90
2022/08/08 00:05:35;;;;;;;3.10;1.05;;;17.60;68.40;;;;;;5012470;28;20026;-91
2022/08/08 00:08:14;;;;;;;2.95;0.98;;;17.50;68.60;;;;;;5015650;28;20053;-89
2022/08/08 00:10:59;;;;;;;1.00;0.80;;;17.50;68.90;;;;;;4996847;28;20502;-88
2022/08/08 00:13:30;;;;;;;1.08;0.77;;;17.40;69.40;;;;;;5009850;28;20068;-92
2022/08/08 00:16:03;;;;;;;1.50;0.90;;;17.30;70.00;;;;;;5030535;28;20074;-87
2022/08/08 00:18:51;;;;;;;1.65;1.05;;;17.20;70.10;;;;;;5025427;28;20044;-88
2022/08/08 00:21:24;;;;;;;0.77;0.75;;;17.20;70.20;;;;;;5023356;28;20205;-87
2022/08/08 00:24:05;;;;;;;1.77;0.98;;;17.10;70.40;;;;;;5016184;28;20061;-89
2022/08/08 00:26:34;;;;;;;1.55;1.00;;;17.00;70.80;;;;;;5021364;28;20076;-88
2022/08/08 00:29:24;;;;;;;1.80;1.10;;;16.90;71.00;;;;;;5083042;28;20046;-88
2022/08/08 00:31:52;;;;;;;;;;;16.80;71.50;;;;;;5078447;28;20062;-88
2022/08/08 00:37:56;;;;;;;1.33;0.90;;;16.80;72.40;;;;;;5114172;28;20062;-89
2022/08/08 00:40:27;;;;;;;1.17;0.93;;;16.70;72.50;;;;;;5119003;28;20103;-89
2022/08/08 00:43:28;;;;;;;1.77;1.10;;;16.70;72.70;;;;;;5101019;28;20460;-88
2022/08/08 00:46:11;;;;;;;2.50;1.20;;;16.60;72.90;;;;;;5082462;28;20035;-89
2022/08/08 00:48:45;;;;;;;1.38;1.20;;;16.50;73.30;;;;;;5107203;28;20075;-91
2022/08/08 00:51:36;;;;;;;1.63;1.10;;;16.50;73.30;;;;;;5129488;28;20019;-90
2022/08/08 00:54:23;;;;;;;1.80;1.02;;;16.50;73.70;;;;;;5123446;28;20026;-90
2022/08/08 00:57:07;;;;;;;2.35;1.48;;;16.40;73.70;;;;;;5121909;28;20073;-90
2022/08/08 00:59:52;;;;;;;2.28;1.45;;;16.40;73.90;;;;;;5099652;28;20024;-90
2022/08/08 01:02:37;;;;;;;1.95;1.23;;;16.30;74.30;;;;;;5121771;28;20016;-90
2022/08/08 01:05:41;;;;;;;3.03;1.48;;;16.30;74.30;;;;;;5110340;28;20020;-89
2022/08/08 01:08:34;;;;;;;1.95;1.35;;;16.40;74.30;;;;;;5111221;28;20075;-87
2022/08/08 01:11:19;;;;;;;2.40;1.38;;;16.30;74.30;;;;;;5115385;28;20024;-89
2022/08/08 01:14:18;;;;;;;4.00;1.63;;;16.30;74.50;;;;;;5121465;28;20142;-89
2022/08/08 01:17:01;;;;;;;2.22;1.40;;;16.30;74.90;;;;;;5123224;28;20039;-89
2022/08/08 01:20:11;;;;;;;1.17;1.05;;;16.30;75.10;;;;;;5106035;28;20027;-90
2022/08/08 01:22:46;;;;;;;2.17;1.30;;;16.30;75.10;;;;;;5123781;28;20048;-90
2022/08/08 01:25:40;;;;;;;3.30;1.20;;;16.30;74.80;;;;;;5123137;27;20023;-88
2022/08/08 01:28:44;;;;;;;1.27;1.17;;;16.40;74.90;;;;;;5121670;27;20031;-88
2022/08/08 01:31:18;;;;;;;1.40;0.98;;;16.30;74.80;;;;;;5146146;27;20023;-92
2022/08/08 01:33:52;;;;;;;2.75;1.17;;;16.30;74.90;;;;;;5122905;27;20156;-89
2022/08/08 01:36:37;;;;;;;3.15;1.10;;;16.30;74.90;;;;;;5143394;27;20031;-91
2022/08/08 01:39:15;;;;;;;2.28;1.10;;;16.30;75.10;;;;;;5138990;27;20031;-91
2022/08/08 01:42:07;;;;;;;0.88;0.82;;;16.20;75.20;;;;;;5142982;27;20034;-91
2022/08/08 01:44:57;;;;;;;1.15;1.08;;;16.20;75.10;;;;;;5122278;28;20046;-90
2022/08/08 01:48:08;;;;;;;1.63;0.98;;;16.20;74.90;;;;;;5134037;28;20023;-89
2022/08/08 01:50:51;;;;;;;;;;;16.20;74.90;;;;;;5054560;28;20028;-90
2022/08/08 01:53:33;;;;;;;1.35;1.15;;;16.20;74.90;;;;;;5147726;28;19907;-90
2022/08/08 01:56:07;;;;;;;2.55;1.23;;;16.20;74.90;;;;;;5121961;28;20023;-89
2022/08/08 01:59:04;;;;;;;2.30;1.27;;;16.10;75.40;;;;;;5135602;27;20041;-89
2022/08/08 02:01:39;;;;;;;3.00;1.08;;;16.10;75.80;;;;;;5123305;28;20054;-88
2022/08/08 02:04:19;;;;;;;1.77;1.33;;;16.10;75.80;;;;;;5140556;28;20028;-88
2022/08/08 02:07:24;;;;;;;1.00;0.90;;;16.00;75.90;;;;;;5118739;28;20019;-88
2022/08/08 02:10:02;;;;;;;0.80;0.80;;;15.90;76.30;;;;;;5132527;27;20118;-88
2022/08/08 02:12:32;;;;;;;1.20;0.85;;;15.90;76.70;;;;;;5138899;28;20051;-89
2022/08/08 02:15:10;;;;;;;0.88;0.80;;;;;;;;;;5132141;28;20031;-90
2022/08/08 02:17:44;;;;;;;2.75;1.00;;;;;;;;;;5156632;27;20023;-91
2022/08/08 02:20:19;;;;;;;1.05;0.63;;;;;;;;;;5158143;27;20028;-90
2022/08/08 02:22:53;;;;;;;1.23;1.13;;;15.70;99.30;;;;;;5158973;27;20076;-89
2022/08/08 02:25:32;;;;;;;2.45;1.00;;;15.70;97.80;;;;;;5140324;27;20047;-90
2022/08/08 02:28:25;;;;;;;2.17;1.00;;;;;;;;;;5153044;27;20039;-88
2022/08/08 02:31:29;;;;;;;1.30;0.90;;;15.70;99.10;;;;;;5141846;27;20035;-93
2022/08/08 02:34:07;;;;;;;4.88;1.20;;;15.60;95.60;;;;;;5130589;27;20024;-92
2022/08/08 02:36:41;;;;;;;2.00;1.00;;;15.60;97.40;;;;;;5144752;27;20098;-92
2022/08/08 02:39:45;;;;;;;1.60;0.80;;;15.60;94.00;;;;;;5142611;27;20084;-91
2022/08/08 02:42:35;;;;;;;1.05;0.95;;;15.50;90.50;;;;;;5143591;27;20031;-93
2022/08/08 02:45:23;;;;;;;1.83;1.25;;;15.50;88.60;;;;;;5140748;27;20027;-92
2022/08/08 02:48:04;;;;;;;1.27;1.17;;;15.40;78.50;;;;;;5146502;27;20114;-92
2022/08/08 02:50:51;;;;;;;1.20;1.00;;;15.40;78.50;;;;;;5144157;27;20019;-92
2022/08/08 02:53:34;;;;;;;2.00;1.08;;;15.40;78.70;;;;;;5147577;27;20659;-93
2022/08/08 02:56:37;;;;;;;1.25;1.00;;;15.40;78.90;;;;;;5143727;27;20015;-92
2022/08/08 02:59:27;;;;;;;1.25;0.80;;;15.40;78.80;;;;;;5121713;27;20027;-90
2022/08/08 03:02:00;;;;;;;3.58;1.10;;;15.30;79.60;;;;;;5122640;27;20019;-91
2022/08/08 03:04:54;;;;;;;1.80;1.00;;;15.30;79.50;;;;;;5141771;27;20031;-89
2022/08/08 03:07:53;;;;;;;1.52;0.90;;;15.20;79.70;;;;;;5141571;27;20027;-89
2022/08/08 03:10:34;;;;;;;2.43;1.20;;;15.20;80.20;;;;;;5143168;27;20054;-90
2022/08/08 03:13:15;;;;;;;0.95;0.80;;;15.10;80.40;;;;;;5145129;27;20055;-90
2022/08/08 03:16:23;;;;;;;2.20;1.00;;;15.10;81.00;;;;;;5127691;27;20023;-91
2022/08/08 03:19:23;;;;;;;1.02;0.98;;;15.00;81.10;;;;;;5037805;27;20037;-90
2022/08/08 03:21:48;;;;;;;1.83;1.27;;;15.00;81.20;;;;;;5128455;27;20031;-91
2022/08/08 03:24:21;;;;;;;3.35;0.90;;;14.90;81.80;;;;;;5145520;27;20099;-91
2022/08/08 03:26:53;;;;;;;1.60;0.95;;;14.90;82.60;;;;;;5119598;27;20043;-90
2022/08/08 03:29:33;;;;;;;1.85;1.10;;;14.80;82.40;;;;;;5121280;28;20074;-90
2022/08/08 03:34:44;;;;;;;0.98;0.90;;;14.80;83.10;;;;;;5125512;28;20616;-92
2022/08/08 03:37:15;;;;;;;1.15;0.90;;;14.80;83.30;;;;;;5125730;28;20023;-91
2022/08/08 03:39:43;;;;;;;1.60;1.05;;;14.70;83.60;;;;;;5123880;28;20387;-90
2022/08/08 03:42:15;;;;;;;1.77;1.00;;;14.70;83.90;;;;;;5122538;28;20055;-91
2022/08/08 03:44:43;;;;;;;1.08;0.98;;;14.50;84.60;;;;;;5123440;28;20801;-89
2022/08/08 03:47:09;;;;;;;2.25;1.25;;;14.50;85.00;;;;;;5121228;28;20027;-90
2022/08/08 03:49:34;;;;;;;1.15;0.82;;;14.60;85.20;;;;;;5120786;28;20095;-88
2022/08/08 03:52:00;;;;;;;1.48;1.20;;;14.60;85.30;;;;;;5125954;27;20023;-92
2022/08/08 03:54:26;;;;;;;1.30;1.20;;;14.60;85.20;;;;;;5126765;27;20076;-91
2022/08/08 03:56:52;;;;;;;2.03;1.20;;;14.60;85.40;;;;;;5123859;28;20058;-91
2022/08/08 03:59:18;;;;;;;1.58;0.88;;;14.70;85.30;;;;;;5123041;28;20027;-90
2022/08/08 04:01:44;;;;;;;1.60;1.27;;;14.70;85.50;;;;;;5114530;28;20092;-90
2022/08/08 04:04:10;;;;;;;1.33;0.95;;;14.70;85.60;;;;;;5137653;27;20027;-91
2022/08/08 04:06:37;;;;;;;1.85;1.20;;;14.60;86.00;;;;;;5123096;28;20085;-91
2022/08/08 04:09:05;;;;;;;3.50;1.20;;;14.60;86.30;;;;;;5122416;28;20028;-90
2022/08/08 04:11:32;;;;;;;2.05;1.20;;;14.60;86.30;;;;;;5122968;27;20081;-90
2022/08/08 04:13:58;;;;;;;1.73;1.25;;;14.60;86.30;;;;;;5122596;28;20139;-88
2022/08/08 04:16:27;;;;;;;1.77;1.10;;;14.60;86.30;;;;;;5121361;28;20023;-90
2022/08/08 04:18:53;;;;;;;1.55;1.10;;;14.70;86.50;;;;;;5120810;27;20088;-89
2022/08/08 04:21:18;;;;;;;1.30;1.17;;;14.70;86.70;;;;;;5121400;28;20043;-90
2022/08/08 04:23:44;;;;;;;1.55;1.10;;;14.60;86.90;;;;;;5123746;27;20024;-92
2022/08/08 04:26:10;;;;;;;1.65;1.10;;;14.70;87.20;;;;;;5130009;27;20440;-91
2022/08/08 04:28:36;;;;;;;1.38;1.23;;;14.70;87.60;;;;;;5141237;27;20035;-87
2022/08/08 04:31:01;;;;;;;2.88;1.30;;;14.70;88.20;;;;;;5146274;27;20085;-94
2022/08/08 04:33:27;;;;;;;2.13;1.02;;;14.70;88.30;;;;;;5138523;27;20035;-89
2022/08/08 04:35:53;;;;;;;3.65;1.25;;;14.70;88.70;;;;;;5138223;27;20023;-88
2022/08/08 04:38:19;;;;;;;2.50;1.33;;;14.70;88.80;;;;;;5138378;27;20035;-88
2022/08/08 04:40:45;;;;;;;2.65;1.35;;;14.80;88.90;;;;;;5118686;27;20015;-88
2022/08/08 04:43:10;;;;;;;1.75;1.35;;;14.80;89.40;;;;;;5135826;27;20029;-88
2022/08/08 04:45:36;;;;;;;4.53;1.63;;;14.80;89.70;;;;;;5117977;27;20114;-91
2022/08/08 04:48:02;;;;;;;5.03;1.55;;;14.90;90.00;;;;;;5122445;27;20027;-90
2022/08/08 04:50:28;;;;;;;1.95;1.23;;;14.90;90.20;;;;;;5141605;27;20019;-89
2022/08/08 04:52:54;;;;;;;2.78;1.60;;;14.90;90.40;;;;;;5124939;27;20020;-91
2022/08/08 04:55:20;;;;;;;2.83;1.25;;;15.00;90.60;;;;;;5141154;27;20034;-90
2022/08/08 04:57:46;;;;;;;1.67;1.13;;;15.00;90.70;;;;;;5138923;27;20883;-91
2022/08/08 05:00:12;;;;;;;1.50;1.13;;;15.10;90.90;;;;;;5144238;27;20023;-93
2022/08/08 05:02:38;;;;;;;1.10;1.10;;;15.10;90.90;;;;;;5123596;27;20034;-92
2022/08/08 05:05:04;;;;;;;1.38;1.17;;;15.20;90.90;;;;;;5142824;27;20027;-90
2022/08/08 05:07:30;;;;;;;1.10;1.00;;;15.20;90.90;;;;;;5138616;27;20027;-91
2022/08/08 05:09:56;;;;;;;2.13;1.15;;;15.30;90.90;;;;;;5141786;27;20058;-90
2022/08/08 05:12:21;;;;;;;2.30;1.40;;;15.40;91.20;;;;;;5124244;27;20023;-90
2022/08/08 05:14:48;;;;;;;1.75;1.40;;;15.40;91.40;;;;;;5121008;27;21057;-88
2022/08/08 05:17:13;;;;;;;4.57;1.85;;;15.50;91.40;;;;;;5123509;27;20023;-92
2022/08/08 05:19:39;;;;;;;5.32;1.70;;;15.60;91.50;;;;;;5138799;27;20069;-90
2022/08/08 05:22:06;;;;;;;2.75;1.30;;;15.70;91.70;;;;;;5119220;27;20023;-90
2022/08/08 05:24:32;;;;;;;2.05;1.67;;;15.80;91.70;;;;;;5118401;27;20023;-89
2022/08/08 05:26:57;;;;;;;4.30;1.70;;;15.90;91.50;;;;;;5136257;27;20050;-89
2022/08/08 05:29:23;;;;;;;4.78;1.73;;;15.90;91.20;;;;;;5118224;27;20095;-89
2022/08/08 05:31:49;;;;;;;3.60;1.70;;;16.00;91.10;;;;;;5117266;27;20038;-89
2022/08/08 05:34:51;;;;;;;4.28;1.40;;;16.10;91.10;;;;;;5137450;27;20023;-89
2022/08/08 05:37:23;;;;;;;2.83;2.00;;;16.20;90.90;;;;;;5054198;28;20021;-90
2022/08/08 05:39:52;;;;;;;3.75;1.98;;;16.30;90.70;;;;;;5130307;27;20023;-91
2022/08/08 05:42:39;;;;;;;4.85;1.80;;;16.40;90.70;;;;;;5142901;27;20023;-90
2022/08/08 05:45:06;;;;;;;3.60;1.95;;;16.50;90.60;;;;;;5120889;27;20023;-91
2022/08/08 05:47:33;;;;;;;5.88;2.13;;;16.60;90.60;;;;;;5144076;27;20083;-92
2022/08/08 05:50:04;;;;;;;3.08;2.03;;;16.70;90.70;;;;;;5116634;27;20019;-90
2022/08/08 05:52:29;;;;;;;;;;;16.80;90.70;;;;;;5139947;28;20023;-88
2022/08/08 05:54:55;;;;;;;3.53;2.00;;;16.90;90.60;;;;;;5139712;28;20260;-89
2022/08/08 05:57:28;;;;;;;4.32;2.00;;;17.00;90.60;;;;;;5141741;27;20041;-91
2022/08/08 05:59:56;;;;;;;4.18;1.80;;;17.10;90.50;;;;;;5140110;28;20023;-94
2022/08/08 06:05:10;;;;;;;3.03;1.75;;;17.30;90.50;;;;;;5139709;28;20035;-89
2022/08/08 06:07:39;;;;;;;3.33;1.77;;;17.40;90.40;;;;;;5135628;28;20015;-83
2022/08/08 06:10:07;;;;;;;2.40;1.60;;;17.50;90.50;;;;;;5129529;28;20027;-89
2022/08/08 06:12:33;;;;;;;3.85;2.05;;;17.70;90.60;;;;;;5132072;28;20389;-81
2022/08/08 06:15:00;;;;;;;5.43;2.22;;;17.80;90.40;;;;;;5130731;28;20532;-84
2022/08/08 06:17:26;;;;;;;3.42;2.20;;;17.90;90.40;;;;;;5129652;28;20388;-85
2022/08/08 06:19:53;;;;;;;3.25;2.17;;;18.00;90.50;;;;;;5129618;27;20079;-84
2022/08/08 06:22:21;;;;;;;3.13;2.33;;;18.10;90.60;;;;;;5134641;28;20035;-84
2022/08/08 06:24:47;;;;;;;7.95;3.13;;;18.20;90.70;;;;;;5130387;28;20024;-86
2022/08/08 06:27:16;;;;;;;5.13;1.90;;;18.30;90.80;;;;;;5130497;28;20589;-87
2022/08/08 06:29:55;;;;;;;4.18;1.88;;;18.40;90.80;;;;;;5127999;27;20042;-84
2022/08/08 06:32:29;;;;;;;5.25;2.65;;;18.50;90.70;;;;;;5132845;28;20161;-84
2022/08/08 06:34:56;;;;;;;3.20;2.33;;;18.60;90.70;;;;;;5129930;28;20027;-85
2022/08/08 06:37:26;;;;;;;5.18;2.88;;;18.80;90.70;;;;;;5131068;27;20438;-84
2022/08/08 06:39:55;;;;;;;2.13;1.93;;;18.90;90.40;;;;;;5129993;28;20039;-84
2022/08/08 06:42:22;;;;;;;3.53;2.05;;;19.00;90.50;;;;;;5131055;28;20106;-83
2022/08/08 06:44:51;;;;;;;3.50;2.00;;;19.10;90.30;;;;;;5126958;28;20028;-85
2022/08/08 06:47:17;;;;;;;4.35;2.92;;;19.20;90.20;;;;;;5132977;28;20111;-85
2022/08/08 06:49:45;;;;;;;4.22;2.95;;;19.30;90.00;;;;;;5132990;28;20063;-84
2022/08/08 06:52:11;;;;;;;3.78;2.35;;;19.50;90.00;;;;;;5138722;28;20046;-80
2022/08/08 06:54:37;;;;;;;8.38;3.05;;;19.60;89.20;;;;;;5138658;28;20023;-78
2022/08/08 06:57:03;;;;;;;7.30;2.38;;;19.60;89.30;;;;;;5117780;28;20049;-77
2022/08/08 06:59:28;;;;;;;3.15;2.45;;;19.70;89.40;;;;;;5119650;28;20031;-78
2022/08/08 07:02:02;;;;;;;3.60;2.45;;;19.70;89.10;;;;;;5135564;28;20030;-79
2022/08/08 07:04:35;;;;;;;3.53;2.38;;;19.90;89.00;;;;;;5136416;27;20026;-79
2022/08/08 07:07:03;;;;;;;5.35;3.15;;;20.00;88.90;;;;;;5142845;27;20038;-86
2022/08/08 07:09:51;;;;;;;3.65;3.03;;;20.20;87.90;;;;;;5133641;27;20104;-79
2022/08/08 07:12:41;;;;;;;6.40;2.70;;;20.30;87.80;;;;;;5146024;27;20024;-79
2022/08/08 07:15:12;;;;;;;8.00;3.00;;;20.40;88.50;;;;;;5143401;27;20044;-79
2022/08/08 07:18:02;;;;;;;4.30;2.70;;;20.50;87.70;;;;;;5146199;27;20022;-78
2022/08/08 07:20:33;;;;;;;18.55;3.35;;;20.70;88.40;;;;;;5142600;27;20027;-79
2022/08/08 07:23:21;;;;;;;6.50;3.25;;;20.90;86.30;;;;;;5144791;27;20113;-79
2022/08/08 07:25:50;;;;;;;8.07;2.85;;;21.10;86.00;;;;;;5144404;27;20031;-77
2022/08/08 07:28:21;;;;;;;9.30;3.22;;;21.20;85.40;;;;;;5142543;27;20114;-80
2022/08/08 07:30:47;;;;;;;5.50;2.92;;;21.30;85.40;;;;;;5143374;27;20472;-80
2022/08/08 07:33:14;;;;;;;12.35;3.78;;;21.30;85.40;;;;;;5142889;27;20023;-80
2022/08/08 07:35:41;;;;;;;8.95;3.25;;;21.40;84.90;;;;;;5143937;27;20098;-77
2022/08/08 07:38:09;;;;;;;6.70;2.70;;;21.50;84.80;;;;;;5145493;27;20035;-79
2022/08/08 07:40:35;;;;;;;5.82;2.75;;;21.60;84.50;;;;;;5123893;27;20024;-80
2022/08/08 07:43:02;;;;;;;9.27;3.53;;;21.70;85.10;;;;;;5144210;27;20052;-80
2022/08/08 07:45:28;;;;;;;11.63;3.75;;;21.70;84.70;;;;;;5144737;27;20097;-79
2022/08/08 07:47:57;;;;;;;5.82;3.15;;;21.90;84.70;;;;;;5144027;27;20059;-79
2022/08/08 07:50:26;;;;;;;4.97;3.10;;;22.00;84.40;;;;;;5141857;27;20015;-85
2022/08/08 07:52:57;;;;;;;8.93;3.67;;;22.20;84.90;;;;;;5141571;27;20027;-80
2022/08/08 07:55:25;;;;;;;5.85;3.15;;;22.20;84.20;;;;;;5141199;27;20015;-82
2022/08/08 07:58:22;;;;;;;9.93;3.25;;;22.40;84.70;;;;;;5138087;27;20049;-81
2022/08/08 08:00:54;;;;;;;8.50;3.75;;;22.50;84.10;;;;;;5141346;27;20494;-80
2022/08/08 08:03:41;;;;;;;4.03;2.53;;;22.60;83.90;;;;;;5138132;27;20034;-81
2022/08/08 08:06:09;;;;;;;5.22;2.80;;;22.80;83.30;;;;;;5141048;27;20092;-79
2022/08/08 08:08:39;;;;;;;6.90;2.35;;;22.90;83.40;;;;;;5139988;27;20019;-79
2022/08/08 08:11:12;;;;;;;3.28;2.70;;;23.00;83.00;;;;;;5140973;27;20094;-78
2022/08/08 08:14:20;;;;;;;6.72;2.78;;;23.10;83.90;;;;;;5139983;27;20035;-78
2022/08/08 08:16:47;;;;;;;8.25;3.00;;;23.30;82.00;;;;;;5065355;28;20067;-78
2022/08/08 08:19:14;;;;;;;3.65;2.20;;;23.50;81.60;;;;;;5121122;27;20031;-80
2022/08/08 08:21:47;;;;;;;6.47;2.80;;;23.60;81.20;;;;;;5133035;27;20015;-79
2022/08/08 08:24:14;;;;;;;4.00;2.63;;;23.60;80.30;;;;;;5138597;27;20064;-80
2022/08/08 08:26:40;;;;;;;9.75;2.70;;;23.80;80.20;;;;;;5136982;27;20095;-79
2022/08/08 08:29:06;;;;;;;3.88;2.17;;;23.90;79.60;;;;;;5142630;27;20076;-78
2022/08/08 08:31:32;;;;;;;4.65;2.22;;;24.00;79.80;;;;;;5141048;27;20023;-80
2022/08/08 08:33:58;;;;;;;5.60;2.22;;;24.10;79.50;;;;;;5139456;27;20374;-79
2022/08/08 08:36:24;;;;;;;6.78;2.35;;;24.30;78.70;;;;;;5139817;27;20023;-84
2022/08/08 08:38:50;;;;;;;3.38;2.20;;;24.40;78.00;;;;;;5143920;27;20027;-81
2022/08/08 08:41:20;;;;;;;4.15;2.60;;;24.40;78.10;;;;;;5138647;27;20472;-78
2022/08/08 08:43:49;;;;;;;4.15;2.22;;;24.50;77.80;;;;;;5122951;27;20429;-79
2022/08/08 08:46:15;;;;;;;3.38;2.42;;;24.50;78.10;;;;;;5144266;27;20027;-78
2022/08/08 08:48:41;;;;;;;4.72;2.33;;;24.50;77.90;;;;;;5142013;27;20045;-78
2022/08/08 08:51:14;;;;;;;4.20;2.35;;;24.50;77.50;;;;;;5144592;27;20366;-79
2022/08/08 08:53:49;;;;;;;8.30;2.45;;;24.60;76.70;;;;;;5120536;27;20433;-81
2022/08/08 08:56:15;;;;;;;3.85;2.30;;;24.70;76.20;;;;;;5125902;27;20031;-80
2022/08/08 08:58:43;;;;;;;2.78;1.90;;;24.70;76.10;;;;;;5134079;27;20031;-80
2022/08/08 09:01:11;;;;;;;5.22;2.17;;;24.80;75.40;;;;;;5136969;27;20099;-81
2022/08/08 09:03:41;;;;;;;4.00;2.05;;;24.80;75.30;;;;;;5135292;27;20410;-81
2022/08/08 09:06:12;;;;;;;28.67;3.97;;;24.90;74.50;;;;;;5128368;27;20031;-81
2022/08/08 09:08:43;;;;;;;7.78;2.28;;;24.90;74.60;;;;;;5130749;27;20048;-79
2022/08/08 09:11:09;;;;;;;5.80;1.92;;;25.10;74.10;;;;;;5132071;27;20460;-80
2022/08/08 09:13:37;;;;;;;4.25;2.00;;;25.10;73.80;;;;;;5129855;27;20019;-80
2022/08/08 09:16:03;;;;;;;5.30;1.95;;;25.20;73.30;;;;;;5111411;27;20429;-79
2022/08/08 09:18:32;;;;;;;2.67;1.80;;;25.40;73.60;;;;;;5130252;27;20042;-80
2022/08/08 09:20:59;;;;;;;2.75;2.05;;;25.50;72.50;;;;;;5131504;27;20031;-80
2022/08/08 09:23:26;;;;;;;3.90;2.30;;;25.60;72.30;;;;;;5128931;27;20030;-77
2022/08/08 09:26:00;;;;;;;2.53;1.83;;;25.70;71.30;;;;;;5128992;27;20565;-80
2022/08/08 09:28:27;;;;;;;2.20;1.85;;;25.70;71.30;;;;;;5130486;27;20027;-77
2022/08/08 09:30:59;;;;;;;3.65;2.28;;;25.70;71.40;;;;;;5127608;27;20027;-81
2022/08/08 09:33:27;;;;;;;1.80;1.60;;;25.80;70.50;;;;;;5111913;27;20523;-79
2022/08/08 09:35:53;;;;;;;2.95;2.40;;;25.80;70.50;;;;;;5130073;27;20016;-80
2022/08/08 09:38:37;;;;;;;4.32;1.50;;;25.80;70.30;;;;;;5137909;27;20026;-81
2022/08/08 09:41:06;;;;;;;3.70;2.00;;;26.00;70.50;;;;;;5133879;27;20038;-79
2022/08/08 09:43:47;;;;;;;4.47;1.85;;;26.30;69.90;;;;;;5133759;27;20090;-78
2022/08/08 09:46:15;;;;;;;2.35;1.70;;;26.40;68.90;;;;;;5134012;27;20478;-79
2022/08/08 09:48:44;;;;;;;12.43;1.95;;;26.50;68.80;;;;;;5135139;27;20038;-79
2022/08/08 09:51:14;;;;;;;3.15;1.80;;;26.70;68.40;;;;;;5135261;28;20106;-79
2022/08/08 09:53:48;;;;;;;3.65;1.50;;;26.90;66.00;;;;;;5133038;27;20038;-79
2022/08/08 09:56:16;;;;;;;10.20;1.80;;;27.00;63.20;;;;;;5135149;28;20067;-79
2022/08/08 09:58:59;;;;;;;10.32;1.35;;;27.10;63.60;;;;;;5129684;28;20653;-81
2022/08/08 10:01:26;;;;;;;1.38;1.27;;;27.20;63.40;;;;;;5136969;28;20118;-77
2022/08/08 10:03:56;;;;;;;2.22;1.20;;;27.40;63.30;;;;;;5129924;28;20107;-81
2022/08/08 10:06:21;;;;;;;;;;;27.50;62.50;;;;;;5133772;28;20031;-79
2022/08/08 10:08:49;;;;;;;1.58;1.48;;;27.60;62.60;;;;;;5127958;28;19923;-80
2022/08/08 10:11:19;;;;;;;1.63;1.40;;;27.70;62.80;;;;;;5132248;28;20084;-80
2022/08/08 10:13:55;;;;;;;;;;;27.70;62.10;;;;;;5129935;28;20198;-86
2022/08/08 10:16:21;;;;;;;4.95;1.30;;;27.70;62.30;;;;;;5133348;28;20352;-83
2022/08/08 10:18:48;;;;;;;6.15;1.30;;;27.70;61.70;;;;;;5130976;28;20034;-81
2022/08/08 10:21:17;;;;;;;6.25;1.60;;;27.70;61.70;;;;;;5134192;28;20426;-82
2022/08/08 10:23:45;;;;;;;4.90;1.35;;;27.70;61.70;;;;;;5127488;28;20071;-81
2022/08/08 10:26:23;;;;;;;2.60;1.55;;;27.80;62.00;;;;;;5107635;28;20118;-81
2022/08/08 10:28:57;;;;;;;5.03;1.63;;;28.00;62.30;;;;;;5128167;28;20039;-82
2022/08/08 10:34:16;;;;;;;2.40;1.80;;;28.10;62.80;;;;;;5126442;28;20026;-84
2022/08/08 10:36:43;;;;;;;2.33;1.98;;;28.10;63.40;;;;;;5130994;27;20035;-82
2022/08/08 10:39:10;;;;;;;2.92;1.90;;;28.20;63.00;;;;;;5132588;27;20019;-79
2022/08/08 10:41:37;;;;;;;2.90;2.10;;;28.30;63.70;;;;;;5131060;27;20460;-81
2022/08/08 10:44:04;;;;;;;2.25;1.50;;;28.30;63.40;;;;;;5134461;27;20019;-80
2022/08/08 10:46:31;;;;;;;3.53;1.70;;;28.20;62.40;;;;;;5134510;27;20093;-79
2022/08/08 10:48:57;;;;;;;2.58;1.67;;;28.00;62.40;;;;;;5132398;27;20046;-81
2022/08/08 10:51:27;;;;;;;1.65;1.55;;;28.00;61.70;;;;;;5138245;27;20023;-81
2022/08/08 10:53:54;;;;;;;4.63;1.70;;;28.00;61.60;;;;;;5137709;27;20027;-78
2022/08/08 10:56:23;;;;;;;1.67;1.55;;;28.00;61.60;;;;;;5133010;27;20388;-78
2022/08/08 10:59:06;;;;;;;1.90;1.80;;;28.20;60.70;;;;;;5132603;27;20119;-78
2022/08/08 11:01:32;;;;;;;1.83;1.38;;;28.30;60.10;;;;;;5130842;27;20031;-78
2022/08/08 11:03:59;;;;;;;3.97;1.30;;;28.30;60.50;;;;;;5135109;27;20138;-83
2022/08/08 11:06:32;;;;;;;4.22;1.42;;;28.50;59.00;;;;;;5131858;27;20499;-77
2022/08/08 11:09:03;;;;;;;1.80;1.17;;;28.40;57.60;;;;;;5132949;27;20031;-79
2022/08/08 11:11:43;;;;;;;1.55;1.45;;;28.50;59.30;;;;;;5133322;27;20023;-77
2022/08/08 11:14:11;;;;;;;1.60;1.50;;;28.70;61.30;;;;;;5129254;27;20110;-79
2022/08/08 11:16:41;;;;;;;5.40;1.23;;;28.60;58.90;;;;;;5133160;27;20035;-79
2022/08/08 11:19:07;;;;;;;;;;;28.50;59.00;;;;;;5137369;27;20035;-80
2022/08/08 11:21:44;;;;;;;2.15;1.30;;;28.10;58.20;;;;;;5132786;27;19952;-78
2022/08/08 11:24:10;;;;;;;1.58;1.20;;;28.10;59.10;;;;;;5134528;27;20023;-79
2022/08/08 11:26:39;;;;;;;4.78;1.60;;;28.10;57.40;;;;;;5134675;27;20144;-80
2022/08/08 11:29:06;;;;;;;8.90;1.20;;;28.20;58.30;;;;;;5138086;27;20031;-80
2022/08/08 11:31:39;;;;;;;3.17;1.27;;;28.50;55.90;;;;;;5135294;27;20023;-79
2022/08/08 11:34:06;;;;;;;7.10;1.33;;;28.70;56.30;;;;;;5135898;27;20019;-79
2022/08/08 11:36:33;;;;;;;3.30;1.08;;;29.00;54.90;;;;;;5130285;27;20074;-80
2022/08/08 11:39:00;;;;;;;2.22;1.25;;;29.20;54.50;;;;;;5134535;27;20054;-79
2022/08/08 11:41:27;;;;;;;2.72;0.85;;;29.30;53.40;;;;;;5132341;27;20027;-77
2022/08/08 11:43:54;;;;;;;3.70;1.40;;;29.40;53.50;;;;;;5133307;27;20057;-80
2022/08/08 11:46:23;;;;;;;4.07;1.40;;;29.60;53.30;;;;;;5133061;27;20042;-79
2022/08/08 11:48:50;;;;;;;2.55;1.38;;;29.80;53.60;;;;;;5131907;27;20027;-80
2022/08/08 11:51:22;;;;;;;4.65;1.50;;;29.90;53.50;;;;;;5132658;27;20012;-79
2022/08/08 11:53:48;;;;;;;6.78;1.58;;;29.80;53.50;;;;;;5132976;27;20117;-80
2022/08/08 11:56:19;;;;;;;2.10;1.33;;;29.90;54.70;;;;;;5133052;27;20076;-80
2022/08/08 11:58:45;;;;;;;1.40;1.20;;;30.00;53.10;;;;;;5130820;27;20108;-79
2022/08/08 12:01:10;;;;;;;1.75;1.58;;;30.00;53.10;;;;;;5111132;27;20439;-80
2022/08/08 12:03:46;;;;;;;1.33;1.10;;;30.20;52.80;;;;;;5133409;27;20027;-79
2022/08/08 12:06:13;;;;;;;2.22;1.00;;;30.10;51.80;;;;;;5135133;27;20023;-80
2022/08/08 12:08:40;;;;;;;1.73;1.27;;;30.10;53.00;;;;;;5131404;27;20111;-79
2022/08/08 12:11:18;;;;;;;1.92;1.13;;;30.20;52.50;;;;;;5130315;27;20376;-79
2022/08/08 12:13:47;;;;;;;1.35;1.20;;;30.40;51.60;;;;;;5131995;27;20019;-80
2022/08/08 12:16:15;;;;;;;2.83;1.10;;;30.40;51.80;;;;;;5133176;27;20030;-80
2022/08/08 12:18:48;;;;;;;4.72;1.30;;;30.50;51.70;;;;;;5130884;27;20031;-79
2022/08/08 12:21:42;;;;;;;1.83;1.63;;;30.50;51.80;;;;;;5124799;27;20027;-79
2022/08/08 12:24:10;;;;;;;1.25;1.10;;;30.50;53.00;;;;;;5125600;27;20030;-80
2022/08/08 12:26:44;;;;;;;3.15;1.20;;;30.60;52.80;;;;;;5130168;27;21134;-80
2022/08/08 12:29:27;;;;;;;1.30;1.20;;;30.60;52.50;;;;;;5133468;27;20055;-80
2022/08/08 12:32:00;;;;;;;2.25;1.50;;;30.60;50.60;;;;;;5125065;27;20025;-80
2022/08/08 12:34:42;;;;;;;1.73;1.02;;;30.80;51.70;;;;;;5128850;27;20075;-79
2022/08/08 12:37:20;;;;;;;1.50;1.40;;;30.90;50.80;;;;;;5129641;27;20031;-78
2022/08/08 12:39:46;;;;;;;2.15;1.40;;;31.00;50.40;;;;;;5130304;27;20031;-79
2022/08/08 12:42:12;;;;;;;3.70;1.33;;;31.00;50.30;;;;;;5128652;27;20056;-79
2022/08/08 12:44:40;;;;;;;2.20;1.13;;;30.90;50.40;;;;;;5128709;27;20046;-80
2022/08/08 12:47:06;;;;;;;1.80;1.13;;;30.70;50.60;;;;;;5131900;27;20098;-80
2022/08/08 12:49:34;;;;;;;2.05;1.27;;;30.70;50.30;;;;;;5128713;27;20045;-80
2022/08/08 12:52:00;;;;;;;1.52;1.10;;;30.50;50.70;;;;;;5127630;27;20027;-80
2022/08/08 12:54:37;;;;;;;1.30;1.20;;;30.60;51.20;;;;;;5129909;27;20425;-78
2022/08/08 12:57:19;;;;;;;3.10;1.20;;;30.80;50.70;;;;;;5129835;27;20114;-79
2022/08/08 12:59:50;;;;;;;1.25;1.17;;;31.00;49.70;;;;;;5127965;27;20027;-79
2022/08/08 13:02:26;;;;;;;2.00;1.40;;;31.10;50.00;;;;;;5126283;27;20019;-78
2022/08/08 13:04:54;;;;;;;0.88;0.85;;;31.20;49.70;;;;;;5132760;27;20023;-79
2022/08/08 13:07:30;;;;;;;5.07;1.30;;;31.20;49.80;;;;;;5129488;27;20027;-81
2022/08/08 13:09:58;;;;;;;7.47;1.48;;;31.30;50.40;;;;;;5124579;27;20058;-79
2022/08/08 13:12:33;;;;;;;1.10;1.00;;;31.40;49.20;;;;;;5127395;27;20027;-76
2022/08/08 13:15:01;;;;;;;1.13;1.00;;;31.40;49.50;;;;;;5127063;27;20118;-78
2022/08/08 13:17:29;;;;;;;2.17;1.08;;;31.60;49.80;;;;;;5129386;27;20058;-79
2022/08/08 13:19:56;;;;;;;4.72;1.48;;;31.70;49.50;;;;;;5113129;27;20531;-79
2022/08/08 13:22:23;;;;;;;2.40;1.30;;;31.90;49.30;;;;;;5131833;27;20030;-76
2022/08/08 13:24:49;;;;;;;2.20;1.20;;;32.10;49.40;;;;;;5130270;27;20031;-79
2022/08/08 13:27:29;;;;;;;1.38;1.10;;;32.30;48.50;;;;;;5130816;27;20118;-80
2022/08/08 13:29:59;;;;;;;3.03;1.15;;;32.40;48.20;;;;;;5132885;27;20496;-79
2022/08/08 13:32:27;;;;;;;1.27;1.23;;;32.60;47.90;;;;;;5127021;27;20023;-76